sensor_id;sensor_type;location;lat;lon;timestamp;pressure;altitude;pressure_sealevel;temperature;humidity
6034;BME280;3045;43.226;27.858;2022-08-11T00:01:12;151115.66;;;20.20;100.00
6034;BME280;3045;43.226;27.858;2022-08-11T00:03:45;151100.41;;;20.14;100.00
6034;BME280;3045;43.226;27.858;2022-08-11T00:06:13;151118.22;;;20.21;100.00
6034;BME280;3045;43.226;27.858;2022-08-11T00:08:41;151100.41;;;20.14;100.00
6034;BME280;3045;43.226;27.858;2022-08-11T00:11:12;151082.59;;;20.07;100.00
6034;BME280;3045;43.226;27.858;2022-08-11T00:13:44;151048.19;;;19.93;100.00
6034;BME280;3045;43.226;27.858;2022-08-11T00:16:13;151039.31;;;19.90;100.00
6034;BME280;3045;43.226;27.858;2022-08-11T00:18:42;151057.09;;;19.97;100.00
6034;BME280;3045;43.226;27.858;2022-08-11T00:21:11;151012.53;;;19.79;100.00
6034;BME280;3045;43.226;27.858;2022-08-11T00:23:41;151053.28;;;19.95;100.00
6034;BME280;3045;43.226;27.858;2022-08-11T00:26:12;151039.31;;;19.90;100.00
6034;BME280;3045;43.226;27.858;2022-08-11T00:28:40;151044.38;;;19.92;100.00
6034;BME280;3045;43.226;27.858;2022-08-11T00:31:11;151034.19;;;19.88;100.00
6034;BME280;3045;43.226;27.858;2022-08-11T00:33:46;151004.91;;;19.76;100.00
6034;BME280;3045;43.226;27.858;2022-08-11T00:36:16;151034.19;;;19.88;100.00
6034;BME280;3045;43.226;27.858;2022-08-11T00:38:45;151041.81;;;19.91;100.00
6034;BME280;3045;43.226;27.858;2022-08-11T00:41:30;150998.53;;;19.74;100.00
6034;BME280;3045;43.226;27.858;2022-08-11T00:44:42;150990.91;;;19.71;100.00
6034;BME280;3045;43.226;27.858;2022-08-11T00:47:20;150998.53;;;19.74;100.00
6034;BME280;3045;43.226;27.858;2022-08-11T00:50:00;151011.28;;;19.79;100.00
6034;BME280;3045;43.226;27.858;2022-08-11T00:53:02;151026.56;;;19.85;100.00
6034;BME280;3045;43.226;27.858;2022-08-11T00:56:06;151025.28;;;19.84;100.00
6034;BME280;3045;43.226;27.858;2022-08-11T01:01:52;151015.09;;;19.80;100.00
6034;BME280;3045;43.226;27.858;2022-08-11T01:04:53;151034.19;;;19.88;100.00
6034;BME280;3045;43.226;27.858;2022-08-11T01:07:48;151052.00;;;19.95;100.00
6034;BME280;3045;43.226;27.858;2022-08-11T01:10:44;151039.31;;;19.90;100.00
6034;BME280;3045;43.226;27.858;2022-08-11T01:16:35;151021.44;;;19.83;100.00
6034;BME280;3045;43.226;27.858;2022-08-11T01:19:40;151057.09;;;19.97;100.00
6034;BME280;3045;43.226;27.858;2022-08-11T01:23:03;151073.63;;;20.03;100.00
6034;BME280;3045;43.226;27.858;2022-08-11T01:26:19;151080.03;;;20.06;100.00
6034;BME280;3045;43.226;27.858;2022-08-11T01:32:49;151074.91;;;20.04;100.00
6034;BME280;3045;43.226;27.858;2022-08-11T01:35:39;151083.81;;;20.07;100.00
6034;BME280;3045;43.226;27.858;2022-08-11T01:38:38;151090.22;;;20.10;100.00
6034;BME280;3045;43.226;27.858;2022-08-11T01:41:28;151057.09;;;19.97;100.00
6034;BME280;3045;43.226;27.858;2022-08-11T01:44:20;151106.75;;;20.17;100.00
6034;BME280;3045;43.226;27.858;2022-08-11T01:47:16;151097.84;;;20.13;100.00
6034;BME280;3045;43.226;27.858;2022-08-11T01:50:08;151092.78;;;20.11;100.00
6034;BME280;3045;43.226;27.858;2022-08-11T01:52:59;151096.56;;;20.13;100.00
6034;BME280;3045;43.226;27.858;2022-08-11T01:55:39;151100.41;;;20.14;100.00
6034;BME280;3045;43.226;27.858;2022-08-11T01:58:18;151069.84;;;20.02;100.00
6034;BME280;3045;43.226;27.858;2022-08-11T02:00:55;151072.34;;;20.03;100.00
6034;BME280;3045;43.226;27.858;2022-08-11T02:03:32;151054.56;;;19.96;100.00
6034;BME280;3045;43.226;27.858;2022-08-11T02:06:09;151068.56;;;20.01;100.00
6034;BME280;3045;43.226;27.858;2022-08-11T02:08:59;151074.91;;;20.04;100.00
6034;BME280;3045;43.226;27.858;2022-08-11T02:11:31;151055.81;;;19.96;100.00
6034;BME280;3045;43.226;27.858;2022-08-11T02:14:02;151060.94;;;19.98;100.00
6034;BME280;3045;43.226;27.858;2022-08-11T02:16:47;151055.81;;;19.96;100.00
6034;BME280;3045;43.226;27.858;2022-08-11T02:19:23;151053.28;;;19.95;100.00
6034;BME280;3045;43.226;27.858;2022-08-11T02:22:17;151072.34;;;20.03;100.00
6034;BME280;3045;43.226;27.858;2022-08-11T02:25:06;151073.63;;;20.03;100.00
6034;BME280;3045;43.226;27.858;2022-08-11T02:27:39;151090.22;;;20.10;100.00
6034;BME280;3045;43.226;27.858;2022-08-11T02:30:09;151081.31;;;20.06;100.00
6034;BME280;3045;43.226;27.858;2022-08-11T02:32:44;151087.66;;;20.09;100.00
6034;BME280;3045;43.226;27.858;2022-08-11T02:35:37;151087.66;;;20.09;100.00
6034;BME280;3045;43.226;27.858;2022-08-11T02:38:20;151099.13;;;20.14;100.00
6034;BME280;3045;43.226;27.858;2022-08-11T02:40:59;151087.66;;;20.09;100.00
6034;BME280;3045;43.226;27.858;2022-08-11T02:43:35;151087.66;;;20.09;100.00
6034;BME280;3045;43.226;27.858;2022-08-11T02:46:18;151059.66;;;19.98;100.00
6034;BME280;3045;43.226;27.858;2022-08-11T02:48:52;151077.47;;;20.05;100.00
6034;BME280;3045;43.226;27.858;2022-08-11T02:51:48;151068.56;;;20.01;100.00
6034;BME280;3045;43.226;27.858;2022-08-11T02:54:25;151082.59;;;20.07;100.00
6034;BME280;3045;43.226;27.858;2022-08-11T02:57:00;151077.47;;;20.05;100.00
6034;BME280;3045;43.226;27.858;2022-08-11T02:59:40;151045.66;;;19.92;100.00
6034;BME280;3045;43.226;27.858;2022-08-11T03:02:33;151030.34;;;19.86;100.00
6034;BME280;3045;43.226;27.858;2022-08-11T03:05:14;151036.75;;;19.89;100.00
6034;BME280;3045;43.226;27.858;2022-08-11T03:07:55;151069.84;;;20.02;100.00
6034;BME280;3045;43.226;27.858;2022-08-11T03:10:31;151064.72;;;20.00;100.00
6034;BME280;3045;43.226;27.858;2022-08-11T03:13:09;151095.28;;;20.12;100.00
6034;BME280;3045;43.226;27.858;2022-08-11T03:16:09;151064.72;;;20.00;100.00
6034;BME280;3045;43.226;27.858;2022-08-11T03:19:06;151109.31;;;20.18;100.00
6034;BME280;3045;43.226;27.858;2022-08-11T03:21:41;151071.13;;;20.02;100.00
6034;BME280;3045;43.226;27.858;2022-08-11T03:24:17;151113.13;;;20.19;100.00
6034;BME280;3045;43.226;27.858;2022-08-11T03:27:02;151095.28;;;20.12;100.00
6034;BME280;3045;43.226;27.858;2022-08-11T03:29:36;151076.19;;;20.04;100.00
6034;BME280;3045;43.226;27.858;2022-08-11T03:32:10;151099.13;;;20.14;100.00
6034;BME280;3045;43.226;27.858;2022-08-11T03:34:47;151039.31;;;19.90;100.00
6034;BME280;3045;43.226;27.858;2022-08-11T03:37:27;151072.34;;;20.03;100.00
6034;BME280;3045;43.226;27.858;2022-08-11T03:40:43;151136.06;;;20.28;100.00
6034;BME280;3045;43.226;27.858;2022-08-11T03:43:46;151108.03;;;20.17;100.00
6034;BME280;3045;43.226;27.858;2022-08-11T03:46:26;151138.63;;;20.29;100.00
6034;BME280;3045;43.226;27.858;2022-08-11T03:49:08;151139.91;;;20.30;100.00
6034;BME280;3045;43.226;27.858;2022-08-11T03:51:49;151192.09;;;20.50;100.00
6034;BME280;3045;43.226;27.858;2022-08-11T03:54:26;151206.13;;;20.56;100.00
6034;BME280;3045;43.226;27.858;2022-08-11T04:00:16;151150.09;;;20.34;100.00
6034;BME280;3045;43.226;27.858;2022-08-11T04:03:36;151141.19;;;20.30;100.00
6034;BME280;3045;43.226;27.858;2022-08-11T04:06:51;151202.28;;;20.55;100.00
6034;BME280;3045;43.226;27.858;2022-08-11T04:09:53;151197.22;;;20.52;100.00
6034;BME280;3045;43.226;27.858;2022-08-11T04:13:07;151220.16;;;20.62;100.00
6034;BME280;3045;43.226;27.858;2022-08-11T04:16:00;151148.81;;;20.33;100.00
6034;BME280;3045;43.226;27.858;2022-08-11T04:22:13;151213.75;;;20.59;100.00
6034;BME280;3045;43.226;27.858;2022-08-11T04:24:57;151276.16;;;20.84;100.00
6034;BME280;3045;43.226;27.858;2022-08-11T04:30:33;151300.38;;;20.93;100.00
6034;BME280;3045;43.226;27.858;2022-08-11T04:33:45;151329.66;;;21.05;100.00
6034;BME280;3045;43.226;27.858;2022-08-11T04:36:50;151277.44;;;20.84;100.00
6034;BME280;3045;43.226;27.858;2022-08-11T04:39:46;151263.47;;;20.79;100.00
6034;BME280;3045;43.226;27.858;2022-08-11T04:45:50;151209.97;;;20.58;100.00
6034;BME280;3045;43.226;27.858;2022-08-11T04:48:38;151199.78;;;20.54;100.00
6034;BME280;3045;43.226;27.858;2022-08-11T04:51:55;151264.69;;;20.79;100.00
6034;BME280;3045;43.226;27.858;2022-08-11T04:55:20;151278.72;;;20.85;100.00
6034;BME280;3045;43.226;27.858;2022-08-11T04:58:20;151246.88;;;20.72;100.00
6034;BME280;3045;43.226;27.858;2022-08-11T05:01:19;151297.81;;;20.92;100.00
6034;BME280;3045;43.226;27.858;2022-08-11T05:04:20;151342.41;;;21.10;100.00
6034;BME280;3045;43.226;27.858;2022-08-11T05:10:20;151486.47;;;21.67;100.00
6034;BME280;3045;43.226;27.858;2022-08-11T05:12:52;151541.31;;;21.89;100.00
6034;BME280;3045;43.226;27.858;2022-08-11T05:15:27;151607.59;;;22.15;100.00
6034;BME280;3045;43.226;27.858;2022-08-11T05:18:22;151704.53;;;22.54;100.00
6034;BME280;3045;43.226;27.858;2022-08-11T05:21:09;151807.91;;;22.95;100.00
6034;BME280;3045;43.226;27.858;2022-08-11T05:24:02;151898.47;;;23.31;100.00
6034;BME280;3045;43.226;27.858;2022-08-11T05:26:50;151907.41;;;23.34;100.00
6034;BME280;3045;43.226;27.858;2022-08-11T05:29:41;152005.72;;;23.73;100.00
6034;BME280;3045;43.226;27.858;2022-08-11T05:32:30;152003.16;;;23.72;100.00
6034;BME280;3045;43.226;27.858;2022-08-11T05:35:24;152056.75;;;23.93;100.00
6034;BME280;3045;43.226;27.858;2022-08-11T05:37:54;152153.84;;;24.32;100.00
6034;BME280;3045;43.226;27.858;2022-08-11T05:40:47;152176.84;;;24.41;100.00
6034;BME280;3045;43.226;27.858;2022-08-11T05:43:34;152235.59;;;24.64;100.00
6034;BME280;3045;43.226;27.858;2022-08-11T05:46:23;152397.91;;;25.28;100.00
6034;BME280;3045;43.226;27.858;2022-08-11T05:49:13;152685.56;;;26.42;100.00
6034;BME280;3045;43.226;27.858;2022-08-11T05:51:58;152917.06;;;27.34;100.00
6034;BME280;3045;43.226;27.858;2022-08-11T05:54:43;153189.78;;;28.41;100.00
6034;BME280;3045;43.226;27.858;2022-08-11T05:57:30;153214.13;;;28.51;100.00
6034;BME280;3045;43.226;27.858;2022-08-11T06:00:00;153338.38;;;29.00;100.00
6034;BME280;3045;43.226;27.858;2022-08-11T06:02:32;153333.25;;;28.98;100.00
6034;BME280;3045;43.226;27.858;2022-08-11T06:05:06;153305.06;;;28.87;100.00
6034;BME280;3045;43.226;27.858;2022-08-11T06:07:33;152961.91;;;27.51;100.00
6034;BME280;3045;43.226;27.858;2022-08-11T06:10:01;152876.16;;;27.17;100.00
6034;BME280;3045;43.226;27.858;2022-08-11T06:12:30;152865.94;;;27.13;100.00
6034;BME280;3045;43.226;27.858;2022-08-11T06:15:04;152952.97;;;27.48;100.00
6034;BME280;3045;43.226;27.858;2022-08-11T06:17:35;153121.94;;;28.14;100.00
6034;BME280;3045;43.226;27.858;2022-08-11T06:20:09;153182.13;;;28.38;100.00
6034;BME280;3045;43.226;27.858;2022-08-11T06:22:38;153183.41;;;28.39;100.00
6034;BME280;3045;43.226;27.858;2022-08-11T06:25:07;153205.19;;;28.47;100.00
6034;BME280;3045;43.226;27.858;2022-08-11T06:27:36;153210.25;;;28.49;100.00
6034;BME280;3045;43.226;27.858;2022-08-11T06:30:06;153196.16;;;28.44;100.00
6034;BME280;3045;43.226;27.858;2022-08-11T06:32:40;153153.94;;;28.27;100.00
6034;BME280;3045;43.226;27.858;2022-08-11T06:35:16;153147.53;;;28.25;100.00
6034;BME280;3045;43.226;27.858;2022-08-11T06:37:55;153241.00;;;28.61;100.00
6034;BME280;3045;43.226;27.858;2022-08-11T06:40:36;153284.56;;;28.79;100.00
6034;BME280;3045;43.226;27.858;2022-08-11T06:43:10;153355.03;;;29.07;99.29
6034;BME280;3045;43.226;27.858;2022-08-11T06:45:50;153310.22;;;28.89;96.32
6034;BME280;3045;43.226;27.858;2022-08-11T06:48:21;153435.75;;;29.38;93.26
6034;BME280;3045;43.226;27.858;2022-08-11T06:50:50;153446.00;;;29.42;94.62
6034;BME280;3045;43.226;27.858;2022-08-11T06:53:36;153554.91;;;29.85;92.23
6034;BME280;3045;43.226;27.858;2022-08-11T06:56:06;153602.38;;;30.04;88.46
6034;BME280;3045;43.226;27.858;2022-08-11T06:58:52;153446.00;;;29.42;91.20
6034;BME280;3045;43.226;27.858;2022-08-11T07:01:42;153474.16;;;29.54;89.88
6034;BME280;3045;43.226;27.858;2022-08-11T07:04:19;153558.81;;;29.87;89.99
6034;BME280;3045;43.226;27.858;2022-08-11T07:07:05;153607.47;;;30.06;86.45
6034;BME280;3045;43.226;27.858;2022-08-11T07:10:19;153310.22;;;28.89;89.96
6034;BME280;3045;43.226;27.858;2022-08-11T07:13:07;153374.25;;;29.14;90.72
6034;BME280;3045;43.226;27.858;2022-08-11T07:15:54;153453.69;;;29.45;88.51
6034;BME280;3045;43.226;27.858;2022-08-11T07:18:26;153420.38;;;29.32;88.74
6034;BME280;3045;43.226;27.858;2022-08-11T07:21:15;153452.44;;;29.45;85.04
6034;BME280;3045;43.226;27.858;2022-08-11T07:24:10;153466.50;;;29.50;86.72
6034;BME280;3045;43.226;27.858;2022-08-11T07:26:58;153425.50;;;29.34;84.89
6034;BME280;3045;43.226;27.858;2022-08-11T07:29:46;153504.94;;;29.66;85.82
6034;BME280;3045;43.226;27.858;2022-08-11T07:32:23;153545.94;;;29.82;85.35
6034;BME280;3045;43.226;27.858;2022-08-11T07:34:57;153651.06;;;30.23;82.47
6034;BME280;3045;43.226;27.858;2022-08-11T07:37:28;153651.06;;;30.23;78.72
6034;BME280;3045;43.226;27.858;2022-08-11T07:39:58;153661.31;;;30.27;78.39
6034;BME280;3045;43.226;27.858;2022-08-11T07:42:29;153689.50;;;30.38;81.78
6034;BME280;3045;43.226;27.858;2022-08-11T07:45:02;153743.38;;;30.60;78.39
6034;BME280;3045;43.226;27.858;2022-08-11T07:47:47;153766.47;;;30.69;80.63
6034;BME280;3045;43.226;27.858;2022-08-11T07:50:34;153771.59;;;30.71;76.74
6034;BME280;3045;43.226;27.858;2022-08-11T07:53:22;153793.41;;;30.79;75.71
6034;BME280;3045;43.226;27.858;2022-08-11T07:55:52;153779.28;;;30.74;75.82
6034;BME280;3045;43.226;27.858;2022-08-11T07:58:22;153745.94;;;30.61;74.62
6034;BME280;3045;43.226;27.858;2022-08-11T08:01:10;153784.44;;;30.76;77.40
6034;BME280;3045;43.226;27.858;2022-08-11T08:03:55;153865.25;;;31.08;74.38
6034;BME280;3045;43.226;27.858;2022-08-11T08:06:42;153949.88;;;31.41;74.59
6034;BME280;3045;43.226;27.858;2022-08-11T08:09:32;154061.53;;;31.85;69.61
6034;BME280;3045;43.226;27.858;2022-08-11T08:12:19;154157.81;;;32.23;68.63
6034;BME280;3045;43.226;27.858;2022-08-11T08:15:06;154255.38;;;32.61;67.40
6034;BME280;3045;43.226;27.858;2022-08-11T08:17:52;154003.78;;;31.62;66.53
6034;BME280;3045;43.226;27.858;2022-08-11T08:20:25;154106.44;;;32.03;65.27
6034;BME280;3045;43.226;27.858;2022-08-11T08:22:56;154165.47;;;32.26;63.06
6034;BME280;3045;43.226;27.858;2022-08-11T08:25:25;154210.41;;;32.44;61.22
6034;BME280;3045;43.226;27.858;2022-08-11T08:27:53;154224.53;;;32.49;59.67
6034;BME280;3045;43.226;27.858;2022-08-11T08:30:21;154200.16;;;32.40;62.24
6034;BME280;3045;43.226;27.858;2022-08-11T08:33:05;154109.03;;;32.04;62.23
6034;BME280;3045;43.226;27.858;2022-08-11T08:35:34;154166.78;;;32.27;63.40
6034;BME280;3045;43.226;27.858;2022-08-11T08:38:03;154223.25;;;32.49;60.46
6034;BME280;3045;43.226;27.858;2022-08-11T08:40:30;154265.66;;;32.66;59.04
6034;BME280;3045;43.226;27.858;2022-08-11T08:43:02;154281.06;;;32.72;59.52
6034;BME280;3045;43.226;27.858;2022-08-11T08:45:33;154274.63;;;32.69;60.71
6034;BME280;3045;43.226;27.858;2022-08-11T08:48:03;154200.16;;;32.40;59.36
6034;BME280;3045;43.226;27.858;2022-08-11T08:50:33;154200.16;;;32.40;59.62
6034;BME280;3045;43.226;27.858;2022-08-11T08:53:23;154088.44;;;31.96;59.72
6034;BME280;3045;43.226;27.858;2022-08-11T08:55:54;154088.44;;;31.96;60.20
6034;BME280;3045;43.226;27.858;2022-08-11T08:58:23;154056.38;;;31.83;58.51
6034;BME280;3045;43.226;27.858;2022-08-11T09:00:53;153929.34;;;31.33;59.36
6034;BME280;3045;43.226;27.858;2022-08-11T09:03:21;154008.94;;;31.64;61.51
6034;BME280;3045;43.226;27.858;2022-08-11T09:05:52;154030.75;;;31.73;60.89
6034;BME280;3045;43.226;27.858;2022-08-11T09:08:21;154171.94;;;32.29;59.29
6034;BME280;3045;43.226;27.858;2022-08-11T09:10:50;154200.16;;;32.40;60.68
6034;BME280;3045;43.226;27.858;2022-08-11T09:13:32;154102.56;;;32.01;58.28
6034;BME280;3045;43.226;27.858;2022-08-11T09:15:59;154134.69;;;32.14;57.31
6034;BME280;3045;43.226;27.858;2022-08-11T09:18:27;154197.56;;;32.39;56.54
6034;BME280;3045;43.226;27.858;2022-08-11T09:20:55;154197.56;;;32.39;55.96
6034;BME280;3045;43.226;27.858;2022-08-11T09:23:25;154304.13;;;32.81;54.53
6034;BME280;3045;43.226;27.858;2022-08-11T09:26:09;154340.09;;;32.95;54.31
6034;BME280;3045;43.226;27.858;2022-08-11T09:28:54;154408.19;;;33.22;53.06
6034;BME280;3045;43.226;27.858;2022-08-11T09:31:21;154435.13;;;33.32;53.97
6034;BME280;3045;43.226;27.858;2022-08-11T09:33:51;154462.13;;;33.43;53.49
6034;BME280;3045;43.226;27.858;2022-08-11T09:36:20;154456.97;;;33.41;53.49
6034;BME280;3045;43.226;27.858;2022-08-11T09:39:06;154295.16;;;32.77;52.51
6034;BME280;3045;43.226;27.858;2022-08-11T09:41:51;154329.81;;;32.91;55.55
6034;BME280;3045;43.226;27.858;2022-08-11T09:44:18;154320.84;;;32.87;54.45
6034;BME280;3045;43.226;27.858;2022-08-11T09:47:03;154352.94;;;33.00;54.22
6034;BME280;3045;43.226;27.858;2022-08-11T09:49:32;154408.19;;;33.22;53.01
6034;BME280;3045;43.226;27.858;2022-08-11T09:51:59;154120.56;;;32.08;54.60
6034;BME280;3045;43.226;27.858;2022-08-11T09:54:35;154161.66;;;32.25;54.56
6034;BME280;3045;43.226;27.858;2022-08-11T09:57:06;154275.91;;;32.70;54.83
6034;BME280;3045;43.226;27.858;2022-08-11T09:59:52;154308.00;;;32.82;54.65
6034;BME280;3045;43.226;27.858;2022-08-11T10:02:22;154331.09;;;32.91;54.22
6034;BME280;3045;43.226;27.858;2022-08-11T10:04:54;154368.31;;;33.06;52.27
6034;BME280;3045;43.226;27.858;2022-08-11T10:07:44;154356.81;;;33.01;52.75
6034;BME280;3045;43.226;27.858;2022-08-11T10:10:16;154305.41;;;32.81;54.23
6034;BME280;3045;43.226;27.858;2022-08-11T10:12:50;154286.19;;;32.74;54.56
6034;BME280;3045;43.226;27.858;2022-08-11T10:15:18;154369.59;;;33.06;53.30
6034;BME280;3045;43.226;27.858;2022-08-11T10:18:04;154418.47;;;33.26;52.09
6034;BME280;3045;43.226;27.858;2022-08-11T10:20:51;154427.44;;;33.29;52.95
6034;BME280;3045;43.226;27.858;2022-08-11T10:23:20;154377.34;;;33.10;52.86
6034;BME280;3045;43.226;27.858;2022-08-11T10:26:07;154331.09;;;32.91;53.25
6034;BME280;3045;43.226;27.858;2022-08-11T10:28:52;154329.81;;;32.91;53.14
6034;BME280;3045;43.226;27.858;2022-08-11T10:31:20;154218.09;;;32.47;55.58
6034;BME280;3045;43.226;27.858;2022-08-11T10:34:05;154306.72;;;32.82;54.21
6034;BME280;3045;43.226;27.858;2022-08-11T10:36:35;154257.97;;;32.63;54.38
6034;BME280;3045;43.226;27.858;2022-08-11T10:39:09;154349.06;;;32.98;53.35
6034;BME280;3045;43.226;27.858;2022-08-11T10:41:44;154281.06;;;32.72;54.10
6034;BME280;3045;43.226;27.858;2022-08-11T10:44:31;154343.97;;;32.96;55.05
6034;BME280;3045;43.226;27.858;2022-08-11T10:47:02;154369.59;;;33.06;54.04
6034;BME280;3045;43.226;27.858;2022-08-11T10:49:47;154304.13;;;32.81;53.56
6034;BME280;3045;43.226;27.858;2022-08-11T10:52:35;154230.94;;;32.52;54.94
6034;BME280;3045;43.226;27.858;2022-08-11T10:55:20;154201.44;;;32.40;54.85
6034;BME280;3045;43.226;27.858;2022-08-11T10:58:08;154157.81;;;32.23;54.95
6034;BME280;3045;43.226;27.858;2022-08-11T11:00:53;154112.84;;;32.05;56.81
6034;BME280;3045;43.226;27.858;2022-08-11T11:03:24;154125.72;;;32.10;56.25
6034;BME280;3045;43.226;27.858;2022-08-11T11:05:55;154168.06;;;32.27;55.86
6034;BME280;3045;43.226;27.858;2022-08-11T11:08:27;154079.47;;;31.92;55.47
6034;BME280;3045;43.226;27.858;2022-08-11T11:11:12;154082.06;;;31.93;57.16
6034;BME280;3045;43.226;27.858;2022-08-11T11:13:45;154056.38;;;31.83;58.06
6034;BME280;3045;43.226;27.858;2022-08-11T11:16:31;154073.09;;;31.90;58.53
6034;BME280;3045;43.226;27.858;2022-08-11T11:19:21;154026.88;;;31.71;57.84
6034;BME280;3045;43.226;27.858;2022-08-11T11:21:52;153996.09;;;31.59;58.47
6034;BME280;3045;43.226;27.858;2022-08-11T11:24:48;153975.53;;;31.51;58.90
6034;BME280;3045;43.226;27.858;2022-08-11T11:27:26;153948.59;;;31.41;60.11
6034;BME280;3045;43.226;27.858;2022-08-11T11:30:03;154021.78;;;31.69;59.46
6034;BME280;3045;43.226;27.858;2022-08-11T11:32:39;154033.34;;;31.74;58.22
6034;BME280;3045;43.226;27.858;2022-08-11T11:35:16;153978.13;;;31.52;57.95
6034;BME280;3045;43.226;27.858;2022-08-11T11:37:48;153987.13;;;31.56;58.99
6034;BME280;3045;43.226;27.858;2022-08-11T11:40:18;153984.56;;;31.55;58.32
6034;BME280;3045;43.226;27.858;2022-08-11T11:42:48;153979.41;;;31.53;58.35
6034;BME280;3045;43.226;27.858;2022-08-11T11:45:18;153914.00;;;31.27;56.83
6034;BME280;3045;43.226;27.858;2022-08-11T11:47:46;153890.91;;;31.18;58.56
6034;BME280;3045;43.226;27.858;2022-08-11T11:50:22;153922.97;;;31.31;59.00
6034;BME280;3045;43.226;27.858;2022-08-11T11:52:51;154007.66;;;31.64;58.59
6034;BME280;3045;43.226;27.858;2022-08-11T11:55:21;154024.31;;;31.70;58.02
6034;BME280;3045;43.226;27.858;2022-08-11T11:57:49;154033.34;;;31.74;57.63
6034;BME280;3045;43.226;27.858;2022-08-11T12:00:35;154078.19;;;31.92;56.60
6034;BME280;3045;43.226;27.858;2022-08-11T12:03:34;154060.25;;;31.85;56.25
6034;BME280;3045;43.226;27.858;2022-08-11T12:06:02;154066.63;;;31.87;56.52
6034;BME280;3045;43.226;27.858;2022-08-11T12:08:33;154070.50;;;31.89;55.43
6034;BME280;3045;43.226;27.858;2022-08-11T12:11:01;154061.53;;;31.85;57.83
6034;BME280;3045;43.226;27.858;2022-08-11T12:13:49;154002.50;;;31.62;57.06
6034;BME280;3045;43.226;27.858;2022-08-11T12:16:20;153947.34;;;31.40;57.15
6034;BME280;3045;43.226;27.858;2022-08-11T12:18:49;153928.06;;;31.33;57.47
6034;BME280;3045;43.226;27.858;2022-08-11T12:21:18;153930.66;;;31.34;60.22
6034;BME280;3045;43.226;27.858;2022-08-11T12:23:47;153992.25;;;31.58;59.93
6034;BME280;3045;43.226;27.858;2022-08-11T12:26:32;154023.03;;;31.70;57.82
6034;BME280;3045;43.226;27.858;2022-08-11T12:29:19;154030.75;;;31.73;56.79
6034;BME280;3045;43.226;27.858;2022-08-11T12:31:48;154030.75;;;31.73;57.39
6034;BME280;3045;43.226;27.858;2022-08-11T12:34:15;154017.91;;;31.68;56.57
6034;BME280;3045;43.226;27.858;2022-08-11T12:36:47;153994.81;;;31.59;57.11
6034;BME280;3045;43.226;27.858;2022-08-11T12:39:21;154016.63;;;31.67;57.21
6034;BME280;3045;43.226;27.858;2022-08-11T12:42:14;154005.06;;;31.63;56.94
6034;BME280;3045;43.226;27.858;2022-08-11T12:45:00;153946.06;;;31.40;57.14
6034;BME280;3045;43.226;27.858;2022-08-11T12:47:49;153955.03;;;31.43;57.71
6034;BME280;3045;43.226;27.858;2022-08-11T12:50:35;153979.41;;;31.53;56.37
6034;BME280;3045;43.226;27.858;2022-08-11T12:53:23;153960.13;;;31.45;56.65
6034;BME280;3045;43.226;27.858;2022-08-11T12:55:53;153938.31;;;31.37;57.02
6034;BME280;3045;43.226;27.858;2022-08-11T12:58:40;153861.44;;;31.06;57.48
6034;BME280;3045;43.226;27.858;2022-08-11T13:01:07;153792.13;;;30.79;58.60
6034;BME280;3045;43.226;27.858;2022-08-11T13:03:54;153880.66;;;31.14;59.00
6034;BME280;3045;43.226;27.858;2022-08-11T13:06:40;153881.94;;;31.14;58.39
6034;BME280;3045;43.226;27.858;2022-08-11T13:09:08;153917.81;;;31.28;58.95
6034;BME280;3045;43.226;27.858;2022-08-11T13:11:37;153910.13;;;31.25;58.97
6034;BME280;3045;43.226;27.858;2022-08-11T13:14:22;153931.94;;;31.34;58.57
6034;BME280;3045;43.226;27.858;2022-08-11T13:16:50;153919.09;;;31.29;57.96
6034;BME280;3045;43.226;27.858;2022-08-11T13:19:36;153853.69;;;31.03;57.75
6034;BME280;3045;43.226;27.858;2022-08-11T13:22:04;153874.22;;;31.11;58.18
6034;BME280;3045;43.226;27.858;2022-08-11T13:24:33;153861.44;;;31.06;57.47
6034;BME280;3045;43.226;27.858;2022-08-11T13:27:01;153819.03;;;30.90;58.40
6034;BME280;3045;43.226;27.858;2022-08-11T13:29:29;153861.44;;;31.06;58.02
6034;BME280;3045;43.226;27.858;2022-08-11T13:31:57;153902.44;;;31.22;58.46
6034;BME280;3045;43.226;27.858;2022-08-11T13:34:27;153880.66;;;31.14;58.12
6034;BME280;3045;43.226;27.858;2022-08-11T13:36:58;153861.44;;;31.06;57.53
6034;BME280;3045;43.226;27.858;2022-08-11T13:39:29;153856.28;;;31.04;58.16
6034;BME280;3045;43.226;27.858;2022-08-11T13:41:59;153865.25;;;31.08;57.79
6034;BME280;3045;43.226;27.858;2022-08-11T13:44:29;153881.94;;;31.14;58.08
6034;BME280;3045;43.226;27.858;2022-08-11T13:46:58;153863.94;;;31.07;58.13
6034;BME280;3045;43.226;27.858;2022-08-11T13:49:27;153897.28;;;31.20;58.35
6034;BME280;3045;43.226;27.858;2022-08-11T13:51:55;153878.06;;;31.13;59.25
6034;BME280;3045;43.226;27.858;2022-08-11T13:54:25;153890.91;;;31.18;59.24
6034;BME280;3045;43.226;27.858;2022-08-11T13:56:55;153890.91;;;31.18;59.03
6034;BME280;3045;43.226;27.858;2022-08-11T13:59:23;153863.94;;;31.07;59.57
6034;BME280;3045;43.226;27.858;2022-08-11T14:01:53;153901.16;;;31.22;60.30
6034;BME280;3045;43.226;27.858;2022-08-11T14:04:24;153875.50;;;31.12;59.33
6034;BME280;3045;43.226;27.858;2022-08-11T14:06:54;153969.09;;;31.49;59.59
6034;BME280;3045;43.226;27.858;2022-08-11T14:09:29;154006.38;;;31.63;58.23
6034;BME280;3045;43.226;27.858;2022-08-11T14:12:00;153992.25;;;31.58;58.04
6034;BME280;3045;43.226;27.858;2022-08-11T14:14:50;153915.22;;;31.27;57.36
6034;BME280;3045;43.226;27.858;2022-08-11T14:17:19;153863.94;;;31.07;57.88
6034;BME280;3045;43.226;27.858;2022-08-11T14:19:50;153853.69;;;31.03;58.98
6034;BME280;3045;43.226;27.858;2022-08-11T14:22:19;153806.22;;;30.84;58.17
6034;BME280;3045;43.226;27.858;2022-08-11T14:24:48;153752.41;;;30.63;60.42
6034;BME280;3045;43.226;27.858;2022-08-11T14:27:16;153779.28;;;30.74;60.18